sensor_id;sensor_type;location;lat;lon;timestamp;pressure;altitude;pressure_sealevel;temperature;humidity
41264;BME280;26998;48.714;9.414;2023-01-15T00:00:51;97867.00;;;10.28;100.00
41264;BME280;26998;48.714;9.414;2023-01-15T00:03:18;97885.88;;;10.27;100.00
41264;BME280;26998;48.714;9.414;2023-01-15T00:05:44;97856.97;;;10.42;100.00
41264;BME280;26998;48.714;9.414;2023-01-15T00:08:10;97860.09;;;10.39;100.00
41264;BME280;26998;48.714;9.414;2023-01-15T00:10:37;97844.06;;;10.39;100.00
41264;BME280;26998;48.714;9.414;2023-01-15T00:13:03;97822.25;;;10.42;100.00
41264;BME280;26998;48.714;9.414;2023-01-15T00:15:30;97831.44;;;10.46;100.00
41264;BME280;26998;48.714;9.414;2023-01-15T00:17:56;97809.78;;;10.36;100.00
41264;BME280;26998;48.714;9.414;2023-01-15T00:20:23;97827.28;;;10.32;100.00
41264;BME280;26998;48.714;9.414;2023-01-15T00:22:49;97818.59;;;10.36;100.00
41264;BME280;26998;48.714;9.414;2023-01-15T00:25:16;97798.66;;;10.39;100.00
41264;BME280;26998;48.714;9.414;2023-01-15T00:27:42;97782.03;;;10.55;100.00
41264;BME280;26998;48.714;9.414;2023-01-15T00:30:11;97770.06;;;10.58;100.00
41264;BME280;26998;48.714;9.414;2023-01-15T00:32:42;97774.78;;;10.44;100.00
41264;BME280;26998;48.714;9.414;2023-01-15T00:35:21;97764.00;;;10.51;100.00
41264;BME280;26998;48.714;9.414;2023-01-15T00:37:48;97768.38;;;10.45;100.00
41264;BME280;26998;48.714;9.414;2023-01-15T00:40:17;97772.69;;;10.46;100.00
41264;BME280;26998;48.714;9.414;2023-01-15T00:42:44;97781.13;;;10.43;100.00
41264;BME280;26998;48.714;9.414;2023-01-15T00:45:20;97764.38;;;10.54;100.00
41264;BME280;26998;48.714;9.414;2023-01-15T00:47:47;97761.19;;;10.46;100.00
41264;BME280;26998;48.714;9.414;2023-01-15T00:50:14;97757.41;;;10.53;100.00
41264;BME280;26998;48.714;9.414;2023-01-15T00:52:41;97741.81;;;10.50;100.00
41264;BME280;26998;48.714;9.414;2023-01-15T00:55:08;97735.63;;;10.50;100.00
41264;BME280;26998;48.714;9.414;2023-01-15T00:57:35;97719.47;;;10.63;100.00
41264;BME280;26998;48.714;9.414;2023-01-15T01:00:02;97696.28;;;10.75;100.00
41264;BME280;26998;48.714;9.414;2023-01-15T01:02:28;97673.28;;;10.86;100.00
41264;BME280;26998;48.714;9.414;2023-01-15T01:04:55;97649.38;;;10.91;100.00
41264;BME280;26998;48.714;9.414;2023-01-15T01:07:22;97654.28;;;11.06;100.00
41264;BME280;26998;48.714;9.414;2023-01-15T01:09:49;97635.56;;;11.18;100.00
41264;BME280;26998;48.714;9.414;2023-01-15T01:12:15;97640.78;;;11.01;100.00
41264;BME280;26998;48.714;9.414;2023-01-15T01:14:42;97651.13;;;10.97;100.00
41264;BME280;26998;48.714;9.414;2023-01-15T01:17:09;97656.56;;;10.91;100.00
41264;BME280;26998;48.714;9.414;2023-01-15T01:19:35;97681.09;;;10.88;100.00
41264;BME280;26998;48.714;9.414;2023-01-15T01:22:02;97660.78;;;11.10;100.00
41264;BME280;26998;48.714;9.414;2023-01-15T01:24:28;97674.00;;;10.93;100.00
41264;BME280;26998;48.714;9.414;2023-01-15T01:26:55;97669.16;;;11.14;100.00
41264;BME280;26998;48.714;9.414;2023-01-15T01:29:22;97670.66;;;11.09;100.00
41264;BME280;26998;48.714;9.414;2023-01-15T01:31:49;97660.53;;;11.12;100.00
41264;BME280;26998;48.714;9.414;2023-01-15T01:34:15;97673.81;;;11.18;100.00
41264;BME280;26998;48.714;9.414;2023-01-15T01:36:43;97667.19;;;11.09;100.00
41264;BME280;26998;48.714;9.414;2023-01-15T01:39:15;97693.44;;;11.00;100.00
41264;BME280;26998;48.714;9.414;2023-01-15T01:41:43;97731.88;;;10.88;100.00
41264;BME280;26998;48.714;9.414;2023-01-15T01:46:59;97715.41;;;11.02;100.00
41264;BME280;26998;48.714;9.414;2023-01-15T01:49:28;97716.09;;;10.98;100.00
41264;BME280;26998;48.714;9.414;2023-01-15T01:52:00;97736.38;;;10.87;100.00
41264;BME280;26998;48.714;9.414;2023-01-15T01:54:29;97722.56;;;10.90;100.00
41264;BME280;26998;48.714;9.414;2023-01-15T01:56:58;97726.16;;;10.84;100.00
41264;BME280;26998;48.714;9.414;2023-01-15T01:59:25;97731.13;;;10.80;100.00
41264;BME280;26998;48.714;9.414;2023-01-15T02:01:53;97708.19;;;10.91;100.00
41264;BME280;26998;48.714;9.414;2023-01-15T02:04:21;97690.97;;;10.99;100.00
41264;BME280;26998;48.714;9.414;2023-01-15T02:06:50;97682.75;;;11.00;100.00
41264;BME280;26998;48.714;9.414;2023-01-15T02:09:18;97680.44;;;11.16;100.00
41264;BME280;26998;48.714;9.414;2023-01-15T02:11:45;97672.84;;;11.01;100.00
41264;BME280;26998;48.714;9.414;2023-01-15T02:14:35;97669.03;;;11.08;100.00
41264;BME280;26998;48.714;9.414;2023-01-15T02:17:21;97656.72;;;11.07;100.00
41264;BME280;26998;48.714;9.414;2023-01-15T02:20:01;97672.84;;;11.01;100.00
41264;BME280;26998;48.714;9.414;2023-01-15T02:25:53;97646.16;;;11.13;100.00
41264;BME280;26998;48.714;9.414;2023-01-15T02:28:25;97644.75;;;11.10;100.00
41264;BME280;26998;48.714;9.414;2023-01-15T02:31:04;97629.50;;;11.10;100.00
41264;BME280;26998;48.714;9.414;2023-01-15T02:33:40;97641.38;;;11.15;100.00
41264;BME280;26998;48.714;9.414;2023-01-15T02:36:12;97633.25;;;11.09;100.00
41264;BME280;26998;48.714;9.414;2023-01-15T02:38:45;97640.53;;;11.02;100.00
41264;BME280;26998;48.714;9.414;2023-01-15T02:41:14;97656.56;;;10.91;100.00
41264;BME280;26998;48.714;9.414;2023-01-15T02:43:51;97664.66;;;10.84;100.00
41264;BME280;26998;48.714;9.414;2023-01-15T02:46:22;97662.38;;;10.99;100.00
41264;BME280;26998;48.714;9.414;2023-01-15T02:48:53;97661.22;;;10.95;100.00
41264;BME280;26998;48.714;9.414;2023-01-15T02:51:24;97659.16;;;11.09;100.00
41264;BME280;26998;48.714;9.414;2023-01-15T02:53:54;97665.28;;;10.98;100.00
41264;BME280;26998;48.714;9.414;2023-01-15T02:56:27;97656.13;;;10.94;100.00
41264;BME280;26998;48.714;9.414;2023-01-15T02:58:58;97653.09;;;11.02;100.00
41264;BME280;26998;48.714;9.414;2023-01-15T03:01:40;97655.09;;;11.06;100.00
41264;BME280;26998;48.714;9.414;2023-01-15T03:07:05;97611.81;;;11.21;100.00
41264;BME280;26998;48.714;9.414;2023-01-15T03:09:33;97617.53;;;11.13;100.00
41264;BME280;26998;48.714;9.414;2023-01-15T03:12:11;97608.47;;;11.26;100.00
41264;BME280;26998;48.714;9.414;2023-01-15T03:17:34;97657.88;;;11.00;100.00
41264;BME280;26998;48.714;9.414;2023-01-15T03:20:10;97662.50;;;11.04;100.00
41264;BME280;26998;48.714;9.414;2023-01-15T03:22:44;97654.16;;;11.01;100.00
41264;BME280;26998;48.714;9.414;2023-01-15T03:25:20;97649.03;;;11.11;100.00
41264;BME280;26998;48.714;9.414;2023-01-15T03:27:52;97708.53;;;10.95;100.00
41264;BME280;26998;48.714;9.414;2023-01-15T03:30:21;97695.88;;;11.02;100.00
41264;BME280;26998;48.714;9.414;2023-01-15T03:32:47;97702.72;;;10.98;100.00
41264;BME280;26998;48.714;9.414;2023-01-15T03:38:13;97691.25;;;11.09;100.00
41264;BME280;26998;48.714;9.414;2023-01-15T03:40:49;97675.56;;;11.13;100.00
41264;BME280;26998;48.714;9.414;2023-01-15T03:43:20;97677.63;;;11.10;100.00
41264;BME280;26998;48.714;9.414;2023-01-15T03:45:53;97693.91;;;10.97;100.00
41264;BME280;26998;48.714;9.414;2023-01-15T03:48:29;97738.03;;;10.88;100.00
41264;BME280;26998;48.714;9.414;2023-01-15T03:51:22;97748.38;;;10.84;100.00
41264;BME280;26998;48.714;9.414;2023-01-15T03:53:54;97775.25;;;10.71;100.00
41264;BME280;26998;48.714;9.414;2023-01-15T03:56:31;97788.53;;;10.78;100.00
41264;BME280;26998;48.714;9.414;2023-01-15T03:59:22;97800.72;;;10.74;100.00
41264;BME280;26998;48.714;9.414;2023-01-15T04:01:50;97809.63;;;10.68;100.00
41264;BME280;26998;48.714;9.414;2023-01-15T04:04:19;97786.84;;;10.65;100.00
41264;BME280;26998;48.714;9.414;2023-01-15T04:06:46;97797.97;;;10.62;100.00
41264;BME280;26998;48.714;9.414;2023-01-15T04:09:13;97806.38;;;10.66;100.00
41264;BME280;26998;48.714;9.414;2023-01-15T04:11:40;97817.28;;;10.64;100.00
41264;BME280;26998;48.714;9.414;2023-01-15T04:14:06;97834.28;;;10.51;100.00
41264;BME280;26998;48.714;9.414;2023-01-15T04:16:33;97833.66;;;10.49;100.00
41264;BME280;26998;48.714;9.414;2023-01-15T04:19:00;97852.25;;;10.44;100.00
41264;BME280;26998;48.714;9.414;2023-01-15T04:21:27;97809.63;;;10.49;100.00
41264;BME280;26998;48.714;9.414;2023-01-15T04:23:54;97834.72;;;10.48;100.00
41264;BME280;26998;48.714;9.414;2023-01-15T04:26:20;97816.53;;;10.57;100.00
41264;BME280;26998;48.714;9.414;2023-01-15T04:28:47;97817.81;;;10.54;100.00
41264;BME280;26998;48.714;9.414;2023-01-15T04:31:14;97830.56;;;10.52;100.00
41264;BME280;26998;48.714;9.414;2023-01-15T04:33:40;97824.84;;;10.49;100.00
41264;BME280;26998;48.714;9.414;2023-01-15T04:36:07;97825.00;;;10.54;100.00
41264;BME280;26998;48.714;9.414;2023-01-15T04:38:38;97843.84;;;10.40;100.00
41264;BME280;26998;48.714;9.414;2023-01-15T04:41:05;97865.44;;;10.39;100.00
41264;BME280;26998;48.714;9.414;2023-01-15T04:43:31;97867.72;;;10.35;100.00
41264;BME280;26998;48.714;9.414;2023-01-15T04:45:58;97874.69;;;10.36;100.00
41264;BME280;26998;48.714;9.414;2023-01-15T04:48:25;97886.63;;;10.34;100.00
41264;BME280;26998;48.714;9.414;2023-01-15T04:50:53;97873.06;;;10.35;100.00
41264;BME280;26998;48.714;9.414;2023-01-15T04:53:19;97846.44;;;10.47;100.00
41264;BME280;26998;48.714;9.414;2023-01-15T04:55:46;97854.53;;;10.40;100.00
41264;BME280;26998;48.714;9.414;2023-01-15T04:58:13;97826.88;;;10.53;100.00
41264;BME280;26998;48.714;9.414;2023-01-15T05:00:40;97821.72;;;10.52;100.00
41264;BME280;26998;48.714;9.414;2023-01-15T05:03:06;97823.00;;;10.49;100.00
41264;BME280;26998;48.714;9.414;2023-01-15T05:05:33;97804.44;;;10.54;100.00
41264;BME280;26998;48.714;9.414;2023-01-15T05:07:59;97801.41;;;10.51;100.00
41264;BME280;26998;48.714;9.414;2023-01-15T05:10:26;97801.03;;;10.47;100.00
41264;BME280;26998;48.714;9.414;2023-01-15T05:12:53;97778.69;;;10.60;100.00
41264;BME280;26998;48.714;9.414;2023-01-15T05:15:20;97763.91;;;10.57;100.00
41264;BME280;26998;48.714;9.414;2023-01-15T05:17:47;97738.44;;;10.73;100.00
41264;BME280;26998;48.714;9.414;2023-01-15T05:20:13;97764.72;;;10.58;100.00
41264;BME280;26998;48.714;9.414;2023-01-15T05:22:40;97750.13;;;10.60;100.00
41264;BME280;26998;48.714;9.414;2023-01-15T05:25:06;97752.34;;;10.63;100.00
41264;BME280;26998;48.714;9.414;2023-01-15T05:27:33;97737.56;;;10.61;100.00
41264;BME280;26998;48.714;9.414;2023-01-15T05:29:59;97747.19;;;10.62;100.00
41264;BME280;26998;48.714;9.414;2023-01-15T05:32:26;97756.88;;;10.63;100.00
41264;BME280;26998;48.714;9.414;2023-01-15T05:34:52;97756.56;;;10.53;100.00
41264;BME280;26998;48.714;9.414;2023-01-15T05:37:19;97767.34;;;10.46;100.00
41264;BME280;26998;48.714;9.414;2023-01-15T05:39:45;97747.66;;;10.59;100.00
41264;BME280;26998;48.714;9.414;2023-01-15T05:42:11;97756.56;;;10.53;100.00
41264;BME280;26998;48.714;9.414;2023-01-15T05:44:38;97739.78;;;10.64;100.00
41264;BME280;26998;48.714;9.414;2023-01-15T05:47:04;97742.69;;;10.62;100.00
41264;BME280;26998;48.714;9.414;2023-01-15T05:49:32;97760.00;;;10.60;100.00
41264;BME280;26998;48.714;9.414;2023-01-15T05:52:00;97774.09;;;10.49;100.00
41264;BME280;26998;48.714;9.414;2023-01-15T05:54:30;97829.09;;;10.38;100.00
41264;BME280;26998;48.714;9.414;2023-01-15T05:56:57;97985.66;;;9.17;100.00
41264;BME280;26998;48.714;9.414;2023-01-15T05:59:25;98176.09;;;8.48;100.00
41264;BME280;26998;48.714;9.414;2023-01-15T06:01:52;98398.72;;;7.86;100.00
41264;BME280;26998;48.714;9.414;2023-01-15T06:04:19;98640.47;;;7.60;100.00
41264;BME280;26998;48.714;9.414;2023-01-15T06:06:47;97807.50;;;7.45;100.00
41264;BME280;26998;48.714;9.414;2023-01-15T06:09:14;97757.78;;;7.32;100.00
41264;BME280;26998;48.714;9.414;2023-01-15T06:11:41;97735.53;;;7.26;100.00
41264;BME280;26998;48.714;9.414;2023-01-15T06:14:08;97739.41;;;7.17;100.00
41264;BME280;26998;48.714;9.414;2023-01-15T06:16:35;97753.09;;;7.14;100.00
41264;BME280;26998;48.714;9.414;2023-01-15T06:19:03;97755.13;;;7.05;100.00
41264;BME280;26998;48.714;9.414;2023-01-15T06:21:32;97762.47;;;6.97;100.00
41264;BME280;26998;48.714;9.414;2023-01-15T06:23:59;97756.91;;;6.91;100.00
41264;BME280;26998;48.714;9.414;2023-01-15T06:26:26;97759.38;;;6.86;100.00
41264;BME280;26998;48.714;9.414;2023-01-15T06:28:53;97760.19;;;6.80;100.00
41264;BME280;26998;48.714;9.414;2023-01-15T06:31:21;97764.88;;;6.78;100.00
41264;BME280;26998;48.714;9.414;2023-01-15T06:33:48;97766.91;;;6.76;100.00
41264;BME280;26998;48.714;9.414;2023-01-15T06:36:18;97756.88;;;6.71;100.00
41264;BME280;26998;48.714;9.414;2023-01-15T06:38:44;97743.19;;;6.68;100.00
41264;BME280;26998;48.714;9.414;2023-01-15T06:41:13;97764.03;;;6.64;100.00
41264;BME280;26998;48.714;9.414;2023-01-15T06:43:40;97762.75;;;6.60;100.00
41264;BME280;26998;48.714;9.414;2023-01-15T06:46:08;97782.59;;;6.58;100.00
41264;BME280;26998;48.714;9.414;2023-01-15T06:48:34;97797.25;;;6.54;100.00
41264;BME280;26998;48.714;9.414;2023-01-15T06:51:01;97789.25;;;6.47;100.00
41264;BME280;26998;48.714;9.414;2023-01-15T06:53:27;97786.81;;;6.45;100.00
41264;BME280;26998;48.714;9.414;2023-01-15T06:55:54;97787.38;;;6.34;100.00
41264;BME280;26998;48.714;9.414;2023-01-15T06:58:20;97791.06;;;6.33;100.00
41264;BME280;26998;48.714;9.414;2023-01-15T07:00:47;97776.91;;;6.26;100.00
41264;BME280;26998;48.714;9.414;2023-01-15T07:03:13;97769.78;;;6.20;100.00
41264;BME280;26998;48.714;9.414;2023-01-15T07:05:40;97766.66;;;6.16;100.00
41264;BME280;26998;48.714;9.414;2023-01-15T07:08:07;97760.34;;;6.11;100.00
41264;BME280;26998;48.714;9.414;2023-01-15T07:10:34;97763.78;;;6.05;100.00
41264;BME280;26998;48.714;9.414;2023-01-15T07:13:00;97760.28;;;6.04;100.00
41264;BME280;26998;48.714;9.414;2023-01-15T07:15:27;97761.50;;;6.01;100.00
41264;BME280;26998;48.714;9.414;2023-01-15T07:17:54;97764.34;;;6.00;100.00
41264;BME280;26998;48.714;9.414;2023-01-15T07:20:20;97750.66;;;5.96;100.00
41264;BME280;26998;48.714;9.414;2023-01-15T07:22:48;97739.16;;;5.89;100.00
41264;BME280;26998;48.714;9.414;2023-01-15T07:25:15;97749.16;;;5.87;100.00
41264;BME280;26998;48.714;9.414;2023-01-15T07:27:41;97700.31;;;5.75;100.00
41264;BME280;26998;48.714;9.414;2023-01-15T07:30:08;97725.09;;;5.61;100.00
41264;BME280;26998;48.714;9.414;2023-01-15T07:32:35;97766.66;;;5.53;100.00
41264;BME280;26998;48.714;9.414;2023-01-15T07:35:01;97770.44;;;5.44;100.00
41264;BME280;26998;48.714;9.414;2023-01-15T07:37:28;97790.53;;;5.32;100.00
41264;BME280;26998;48.714;9.414;2023-01-15T07:39:54;97812.91;;;5.29;100.00
41264;BME280;26998;48.714;9.414;2023-01-15T07:42:21;97814.91;;;5.21;100.00
41264;BME280;26998;48.714;9.414;2023-01-15T07:44:47;97826.25;;;5.15;100.00
41264;BME280;26998;48.714;9.414;2023-01-15T07:47:15;97830.25;;;5.10;100.00
41264;BME280;26998;48.714;9.414;2023-01-15T07:49:43;97849.75;;;5.03;100.00
41264;BME280;26998;48.714;9.414;2023-01-15T07:52:14;97861.16;;;5.03;100.00
41264;BME280;26998;48.714;9.414;2023-01-15T07:54:41;97873.59;;;5.03;100.00
41264;BME280;26998;48.714;9.414;2023-01-15T07:57:09;97892.13;;;5.03;100.00
41264;BME280;26998;48.714;9.414;2023-01-15T07:59:36;97915.88;;;4.96;100.00
41264;BME280;26998;48.714;9.414;2023-01-15T08:02:02;97939.34;;;4.99;100.00
41264;BME280;26998;48.714;9.414;2023-01-15T08:04:29;97949.94;;;4.99;100.00
41264;BME280;26998;48.714;9.414;2023-01-15T08:06:58;97956.59;;;4.95;100.00
41264;BME280;26998;48.714;9.414;2023-01-15T08:09:25;97958.41;;;4.95;100.00
41264;BME280;26998;48.714;9.414;2023-01-15T08:11:51;97957.22;;;4.97;100.00
41264;BME280;26998;48.714;9.414;2023-01-15T08:14:18;97938.03;;;4.95;100.00
41264;BME280;26998;48.714;9.414;2023-01-15T08:16:44;97947.00;;;4.94;100.00
41264;BME280;26998;48.714;9.414;2023-01-15T08:19:11;97950.09;;;4.98;100.00
41264;BME280;26998;48.714;9.414;2023-01-15T08:21:37;97941.72;;;4.94;100.00
41264;BME280;26998;48.714;9.414;2023-01-15T08:24:04;97950.31;;;4.96;100.00
41264;BME280;26998;48.714;9.414;2023-01-15T08:26:30;97937.06;;;4.96;100.00
41264;BME280;26998;48.714;9.414;2023-01-15T08:28:57;97939.06;;;4.94;100.00
41264;BME280;26998;48.714;9.414;2023-01-15T08:31:24;97936.25;;;4.96;100.00
41264;BME280;26998;48.714;9.414;2023-01-15T08:33:51;97940.25;;;4.92;100.00
41264;BME280;26998;48.714;9.414;2023-01-15T08:36:17;97937.50;;;5.00;100.00
41264;BME280;26998;48.714;9.414;2023-01-15T08:38:43;97931.19;;;5.01;100.00
41264;BME280;26998;48.714;9.414;2023-01-15T08:41:10;97926.53;;;5.03;100.00
41264;BME280;26998;48.714;9.414;2023-01-15T08:43:36;97910.72;;;5.09;100.00
41264;BME280;26998;48.714;9.414;2023-01-15T08:46:04;97905.16;;;5.04;100.00
41264;BME280;26998;48.714;9.414;2023-01-15T08:48:31;97901.22;;;5.15;100.00
41264;BME280;26998;48.714;9.414;2023-01-15T08:50:57;97896.38;;;5.19;100.00
41264;BME280;26998;48.714;9.414;2023-01-15T08:53:24;97884.16;;;5.18;100.00
41264;BME280;26998;48.714;9.414;2023-01-15T08:55:50;97887.41;;;5.20;100.00
41264;BME280;26998;48.714;9.414;2023-01-15T08:58:17;97887.97;;;5.15;100.00
41264;BME280;26998;48.714;9.414;2023-01-15T09:00:43;97889.44;;;5.18;100.00
41264;BME280;26998;48.714;9.414;2023-01-15T09:03:09;97893.56;;;5.20;100.00
41264;BME280;26998;48.714;9.414;2023-01-15T09:05:36;97892.13;;;5.03;100.00
41264;BME280;26998;48.714;9.414;2023-01-15T09:08:05;97907.63;;;5.06;100.00
41264;BME280;26998;48.714;9.414;2023-01-15T09:10:33;97910.09;;;5.07;100.00
41264;BME280;26998;48.714;9.414;2023-01-15T09:13:00;97927.44;;;5.10;100.00
41264;BME280;26998;48.714;9.414;2023-01-15T09:15:29;97938.78;;;5.04;100.00
41264;BME280;26998;48.714;9.414;2023-01-15T09:17:56;97941.69;;;5.09;100.00
41264;BME280;26998;48.714;9.414;2023-01-15T09:20:23;97943.78;;;5.14;100.00
41264;BME280;26998;48.714;9.414;2023-01-15T09:22:50;97955.75;;;5.09;100.00
41264;BME280;26998;48.714;9.414;2023-01-15T09:25:17;97959.28;;;5.17;100.00
41264;BME280;26998;48.714;9.414;2023-01-15T09:27:45;97964.44;;;5.18;100.00
41264;BME280;26998;48.714;9.414;2023-01-15T09:30:21;97951.34;;;5.17;100.00
41264;BME280;26998;48.714;9.414;2023-01-15T09:32:48;97948.91;;;5.15;100.00
41264;BME280;26998;48.714;9.414;2023-01-15T09:35:14;97967.34;;;5.23;100.00
41264;BME280;26998;48.714;9.414;2023-01-15T09:37:41;97970.25;;;5.28;100.00
41264;BME280;26998;48.714;9.414;2023-01-15T09:42:57;98003.34;;;5.18;100.00
41264;BME280;26998;48.714;9.414;2023-01-15T09:45:30;97994.00;;;5.22;100.00
41264;BME280;26998;48.714;9.414;2023-01-15T09:48:10;97996.56;;;5.30;100.00
41264;BME280;26998;48.714;9.414;2023-01-15T09:50:47;98001.22;;;5.28;100.00
41264;BME280;26998;48.714;9.414;2023-01-15T09:53:35;97995.81;;;5.36;100.00
41264;BME280;26998;48.714;9.414;2023-01-15T09:56:13;97992.91;;;5.31;100.00
41264;BME280;26998;48.714;9.414;2023-01-15T09:58:44;97995.47;;;5.39;100.00
41264;BME280;26998;48.714;9.414;2023-01-15T10:01:18;97998.09;;;5.39;100.00
41264;BME280;26998;48.714;9.414;2023-01-15T10:03:56;97997.38;;;5.45;100.00
41264;BME280;26998;48.714;9.414;2023-01-15T10:06:47;97986.75;;;5.45;100.00
41264;BME280;26998;48.714;9.414;2023-01-15T10:09:21;97992.34;;;5.36;100.00
41264;BME280;26998;48.714;9.414;2023-01-15T10:11:54;97988.50;;;5.38;100.00
41264;BME280;26998;48.714;9.414;2023-01-15T10:14:34;97990.09;;;5.18;100.00
41264;BME280;26998;48.714;9.414;2023-01-15T10:17:01;98007.91;;;5.24;100.00
41264;BME280;26998;48.714;9.414;2023-01-15T10:19:27;98028.00;;;5.18;100.00
41264;BME280;26998;48.714;9.414;2023-01-15T10:22:25;98040.69;;;5.23;100.00
41264;BME280;26998;48.714;9.414;2023-01-15T10:24:55;98063.78;;;5.29;100.00
41264;BME280;26998;48.714;9.414;2023-01-15T10:27:24;98065.53;;;5.22;100.00
41264;BME280;26998;48.714;9.414;2023-01-15T10:30:03;98080.16;;;5.18;100.00
41264;BME280;26998;48.714;9.414;2023-01-15T10:32:42;98112.31;;;5.15;100.00
41264;BME280;26998;48.714;9.414;2023-01-15T10:35:34;98164.28;;;5.16;100.00
41264;BME280;26998;48.714;9.414;2023-01-15T10:46:08;98245.69;;;5.22;100.00
41264;BME280;26998;48.714;9.414;2023-01-15T10:48:51;98242.88;;;5.23;100.00
41264;BME280;26998;48.714;9.414;2023-01-15T10:51:25;98286.25;;;5.22;100.00
41264;BME280;26998;48.714;9.414;2023-01-15T10:54:09;98326.91;;;5.29;100.00
41264;BME280;26998;48.714;9.414;2023-01-15T10:56:40;98341.09;;;5.14;100.00
41264;BME280;26998;48.714;9.414;2023-01-15T10:59:18;98335.41;;;5.25;100.00
41264;BME280;26998;48.714;9.414;2023-01-15T11:01:49;98338.22;;;5.00;100.00
41264;BME280;26998;48.714;9.414;2023-01-15T11:04:17;98368.03;;;4.94;100.00
41264;BME280;26998;48.714;9.414;2023-01-15T11:06:44;98357.63;;;4.93;100.00
41264;BME280;26998;48.714;9.414;2023-01-15T11:09:22;98358.81;;;4.90;100.00
41264;BME280;26998;48.714;9.414;2023-01-15T11:11:51;98363.97;;;4.83;100.00
41264;BME280;26998;48.714;9.414;2023-01-15T11:14:18;98361.19;;;4.77;100.00
41264;BME280;26998;48.714;9.414;2023-01-15T11:16:45;98361.03;;;4.70;100.00
41264;BME280;26998;48.714;9.414;2023-01-15T11:19:28;98409.41;;;4.56;100.00
41264;BME280;26998;48.714;9.414;2023-01-15T11:21:55;98436.91;;;4.47;100.00
41264;BME280;26998;48.714;9.414;2023-01-15T11:24:21;98429.63;;;4.32;100.00
41264;BME280;26998;48.714;9.414;2023-01-15T11:26:50;98422.25;;;3.95;100.00
41264;BME280;26998;48.714;9.414;2023-01-15T11:29:37;98435.50;;;3.87;100.00
41264;BME280;26998;48.714;9.414;2023-01-15T11:32:17;98466.53;;;3.77;100.00
41264;BME280;26998;48.714;9.414;2023-01-15T11:34:52;98530.28;;;3.65;100.00
41264;BME280;26998;48.714;9.414;2023-01-15T11:37:19;98563.97;;;3.63;100.00
41264;BME280;26998;48.714;9.414;2023-01-15T11:39:58;98587.06;;;3.61;100.00
41264;BME280;26998;48.714;9.414;2023-01-15T11:42:25;98607.06;;;3.64;100.00
41264;BME280;26998;48.714;9.414;2023-01-15T11:44:53;98617.81;;;3.62;100.00
41264;BME280;26998;48.714;9.414;2023-01-15T11:47:20;98624.94;;;3.62;100.00
41264;BME280;26998;48.714;9.414;2023-01-15T11:49:52;98646.53;;;3.57;100.00
41264;BME280;26998;48.714;9.414;2023-01-15T11:52:21;98634.31;;;3.56;100.00
41264;BME280;26998;48.714;9.414;2023-01-15T11:54:54;98642.38;;;3.55;100.00
41264;BME280;26998;48.714;9.414;2023-01-15T11:57:30;98642.56;;;3.53;100.00
41264;BME280;26998;48.714;9.414;2023-01-15T11:59:57;98648.97;;;3.51;100.00
41264;BME280;26998;48.714;9.414;2023-01-15T12:02:38;98654.47;;;3.57;100.00
41264;BME280;26998;48.714;9.414;2023-01-15T12:05:14;98659.75;;;3.57;100.00
41264;BME280;26998;48.714;9.414;2023-01-15T12:07:43;98649.03;;;3.59;100.00
41264;BME280;26998;48.714;9.414;2023-01-15T12:10:28;98654.63;;;3.56;100.00
41264;BME280;26998;48.714;9.414;2023-01-15T12:13:20;98663.38;;;3.56;100.00
41264;BME280;26998;48.714;9.414;2023-01-15T12:15:56;98660.06;;;3.54;100.00
41264;BME280;26998;48.714;9.414;2023-01-15T12:24:09;98664.53;;;3.54;100.00
41264;BME280;26998;48.714;9.414;2023-01-15T12:29:31;98679.56;;;3.53;100.00
41264;BME280;26998;48.714;9.414;2023-01-15T12:32:04;98683.84;;;3.54;100.00
41264;BME280;26998;48.714;9.414;2023-01-15T12:34:49;98676.59;;;3.56;100.00
41264;BME280;26998;48.714;9.414;2023-01-15T12:37:22;98671.94;;;3.50;100.00
41264;BME280;26998;48.714;9.414;2023-01-15T12:39:54;98679.91;;;3.58;100.00
41264;BME280;26998;48.714;9.414;2023-01-15T12:42:23;98684.84;;;3.61;100.00
41264;BME280;26998;48.714;9.414;2023-01-15T12:44:55;98685.09;;;3.68;100.00
41264;BME280;26998;48.714;9.414;2023-01-15T12:47:28;98683.59;;;3.74;100.00
41264;BME280;26998;48.714;9.414;2023-01-15T12:50:27;98677.78;;;3.62;100.00
41264;BME280;26998;48.714;9.414;2023-01-15T12:53:06;98682.78;;;3.73;100.00
41264;BME280;26998;48.714;9.414;2023-01-15T12:55:40;98664.44;;;3.72;100.00
41264;BME280;26998;48.714;9.414;2023-01-15T12:58:27;98655.50;;;3.73;100.00
41264;BME280;26998;48.714;9.414;2023-01-15T13:01:04;98672.25;;;3.81;100.00
41264;BME280;26998;48.714;9.414;2023-01-15T13:03:48;98677.03;;;3.78;100.00
41264;BME280;26998;48.714;9.414;2023-01-15T13:06:17;98679.16;;;3.74;100.00
41264;BME280;26998;48.714;9.414;2023-01-15T13:08:55;98675.34;;;3.77;100.00
41264;BME280;26998;48.714;9.414;2023-01-15T13:11:25;98674.28;;;3.61;100.00
41264;BME280;26998;48.714;9.414;2023-01-15T13:13:51;98674.34;;;3.69;100.00
41264;BME280;26998;48.714;9.414;2023-01-15T13:16:26;98687.22;;;3.73;100.00
41264;BME280;26998;48.714;9.414;2023-01-15T13:21:35;98696.81;;;3.74;100.00
41264;BME280;26998;48.714;9.414;2023-01-15T13:27:00;98709.06;;;3.83;100.00
41264;BME280;26998;48.714;9.414;2023-01-15T13:32:14;98708.44;;;3.81;100.00
41264;BME280;26998;48.714;9.414;2023-01-15T13:34:53;98704.78;;;3.82;100.00
41264;BME280;26998;48.714;9.414;2023-01-15T13:37:42;98707.25;;;3.75;100.00
41264;BME280;26998;48.714;9.414;2023-01-15T13:42:48;98701.31;;;3.81;100.00
41264;BME280;26998;48.714;9.414;2023-01-15T13:47:49;98715.69;;;3.79;100.00
41264;BME280;26998;48.714;9.414;2023-01-15T13:50:30;98714.69;;;3.80;100.00
41264;BME280;26998;48.714;9.414;2023-01-15T13:53:08;98718.19;;;3.80;100.00
41264;BME280;26998;48.714;9.414;2023-01-15T13:55:42;98729.91;;;3.86;100.00
41264;BME280;26998;48.714;9.414;2023-01-15T13:58:25;98721.16;;;3.85;100.00